createdAt,value
2022-09-04T00:00:00.134Z,23.5
2022-09-04T00:05:00.269Z,23.6
2022-09-04T00:10:00.161Z,23.5
2022-09-04T00:15:00.092Z,23.5
2022-09-04T00:20:00.111Z,23.5
2022-09-04T00:25:00.150Z,23.6
2022-09-04T00:30:00.149Z,23.6
2022-09-04T00:35:00.073Z,23.6
2022-09-04T00:40:00.239Z,23.6
2022-09-04T00:45:00.102Z,23.6
2022-09-04T00:50:00.978Z,23.6
2022-09-04T00:55:00.098Z,23.6
2022-09-04T01:00:01.022Z,23.6
2022-09-04T01:05:00.096Z,23.6
2022-09-04T01:10:00.183Z,23.6
2022-09-04T01:15:00.068Z,23.7
2022-09-04T01:20:00.087Z,23.6
2022-09-04T01:25:00.125Z,23.6
2022-09-04T01:30:00.143Z,23.6
2022-09-04T01:35:00.090Z,23.5
2022-09-04T01:40:00.199Z,23.5
2022-09-04T01:45:00.071Z,23.5
2022-09-04T01:50:03.116Z,23.5
2022-09-04T01:55:01.041Z,23.5
2022-09-04T02:00:00.108Z,23.5
2022-09-04T02:05:00.072Z,23.5
2022-09-04T02:10:00.108Z,23.4
2022-09-04T02:15:00.070Z,23.5
2022-09-04T02:20:00.088Z,23.4
2022-09-04T02:25:00.086Z,23.4
2022-09-04T02:30:00.084Z,23.4
2022-09-04T02:35:00.074Z,23.3
2022-09-04T02:40:02.192Z,23.3
2022-09-04T02:45:00.056Z,23.3
2022-09-04T02:50:00.084Z,23.3
2022-09-04T02:55:00.085Z,23.3
2022-09-04T03:00:00.088Z,23.3
2022-09-04T03:05:00.066Z,23.3
2022-09-04T03:10:00.114Z,23.2
2022-09-04T03:15:00.075Z,23.2
2022-09-04T03:20:00.112Z,23.2
2022-09-04T03:25:00.090Z,23.2
2022-09-04T03:30:00.077Z,23.2
2022-09-04T03:35:00.068Z,23.2
2022-09-04T03:40:00.180Z,23.2
2022-09-04T03:45:00.109Z,23.2
2022-09-04T03:50:00.090Z,23.2
2022-09-04T03:55:00.096Z,23.1
2022-09-04T04:00:00.092Z,23.1
2022-09-04T04:05:00.100Z,23.1
2022-09-04T04:10:00.107Z,23.1
2022-09-04T04:15:00.067Z,23.1
2022-09-04T04:20:00.116Z,23.0
2022-09-04T04:25:00.084Z,23.1
2022-09-04T04:30:00.132Z,23.0
2022-09-04T04:35:00.081Z,23.0
2022-09-04T04:40:00.159Z,23.0
2022-09-04T04:45:00.099Z,23.0
2022-09-04T04:50:00.074Z,23.0
2022-09-04T04:55:00.101Z,23.0
2022-09-04T05:00:00.080Z,23.0
2022-09-04T05:05:00.091Z,23.0
2022-09-04T05:10:00.124Z,23.0
2022-09-04T05:15:00.097Z,23.0
2022-09-04T05:20:00.125Z,23.0
2022-09-04T05:25:00.093Z,23.0
2022-09-04T05:30:00.108Z,23.0
2022-09-04T05:35:00.095Z,22.9
2022-09-04T05:40:00.259Z,23.0
2022-09-04T05:45:00.099Z,22.9
2022-09-04T05:50:00.263Z,22.9
2022-09-04T05:55:00.093Z,22.9
2022-09-04T06:00:00.116Z,23.0
2022-09-04T06:05:00.098Z,22.9
2022-09-04T06:10:00.143Z,22.9
2022-09-04T06:15:00.091Z,22.9
2022-09-04T06:20:00.090Z,22.9
2022-09-04T06:25:00.100Z,22.9
2022-09-04T06:30:00.142Z,22.9
2022-09-04T06:35:00.081Z,22.9
2022-09-04T06:40:01.746Z,22.9
2022-09-04T06:45:00.095Z,22.9
2022-09-04T06:50:00.129Z,22.9
2022-09-04T06:55:00.092Z,22.9
2022-09-04T07:00:00.145Z,22.9
2022-09-04T07:05:00.097Z,22.9
2022-09-04T07:10:01.620Z,22.9
2022-09-04T07:15:00.129Z,22.9
2022-09-04T07:20:00.143Z,22.9
2022-09-04T07:25:00.098Z,22.9
2022-09-04T07:30:01.531Z,22.9
2022-09-04T07:35:00.099Z,22.9
2022-09-04T07:40:00.433Z,22.9
2022-09-04T07:45:00.097Z,22.9
2022-09-04T07:50:00.109Z,22.9
2022-09-04T07:55:00.089Z,22.9
2022-09-04T08:00:00.136Z,23.0
2022-09-04T08:05:00.196Z,22.9
2022-09-04T08:10:00.133Z,23.0
2022-09-04T08:15:00.120Z,23.0
2022-09-04T08:20:00.131Z,23.0
2022-09-04T08:25:00.098Z,23.0
2022-09-04T08:30:00.293Z,23.0
2022-09-04T08:35:00.090Z,23.0
2022-09-04T08:40:00.222Z,23.0
2022-09-04T08:45:00.111Z,23.0
2022-09-04T08:50:00.100Z,23.0
2022-09-04T08:55:01.658Z,23.0
2022-09-04T09:00:00.102Z,23.0
2022-09-04T09:05:00.138Z,23.0
2022-09-04T09:10:00.143Z,23.0
2022-09-04T09:15:00.098Z,23.0
2022-09-04T09:20:00.153Z,23.1
2022-09-04T09:25:00.115Z,23.0
2022-09-04T09:30:00.124Z,23.0
2022-09-04T09:35:00.110Z,23.0
2022-09-04T09:40:00.152Z,23.0
2022-09-04T09:45:00.076Z,23.0
2022-09-04T09:50:00.151Z,23.0
2022-09-04T09:55:01.684Z,23.0
2022-09-04T10:00:00.091Z,23.1
2022-09-04T10:05:00.155Z,23.0
2022-09-04T10:10:00.115Z,23.1
2022-09-04T10:15:00.117Z,23.0
2022-09-04T10:20:00.141Z,23.1
2022-09-04T10:25:00.106Z,23.1
2022-09-04T10:30:00.112Z,23.1
2022-09-04T10:35:00.106Z,23.1
2022-09-04T10:40:00.233Z,23.1
2022-09-04T10:45:00.097Z,23.1
2022-09-04T10:50:00.140Z,23.1
2022-09-04T10:55:00.095Z,23.2
2022-09-04T11:00:00.155Z,23.2
2022-09-04T11:05:00.108Z,23.2
2022-09-04T11:10:00.120Z,23.2
2022-09-04T11:15:00.082Z,23.2
2022-09-04T11:20:00.154Z,23.3
2022-09-04T11:25:00.142Z,23.3
2022-09-04T11:30:00.126Z,23.3
2022-09-04T11:35:00.118Z,23.3
2022-09-04T11:40:00.157Z,23.3
2022-09-04T11:45:00.104Z,23.3
2022-09-04T11:50:00.148Z,23.4
2022-09-04T11:55:00.108Z,23.4
2022-09-04T12:00:00.128Z,23.4
2022-09-04T12:05:00.106Z,23.5
2022-09-04T12:10:00.125Z,23.5
2022-09-04T12:15:05.654Z,23.5
2022-09-04T12:20:00.144Z,23.5
2022-09-04T12:25:00.105Z,23.5
2022-09-04T12:30:02.020Z,23.5
2022-09-04T12:35:00.133Z,23.5
2022-09-04T12:40:00.234Z,23.5
2022-09-04T12:45:00.093Z,23.6
2022-09-04T12:50:00.140Z,23.6
2022-09-04T12:55:00.108Z,23.7
2022-09-04T13:00:00.110Z,23.7
2022-09-04T13:05:00.113Z,23.7
2022-09-04T13:10:00.115Z,23.7
2022-09-04T13:15:00.097Z,23.8
2022-09-04T13:20:00.144Z,23.8
2022-09-04T13:25:00.089Z,23.8
2022-09-04T13:30:03.189Z,23.8
2022-09-04T13:35:00.113Z,23.8
2022-09-04T13:40:00.240Z,23.8
2022-09-04T13:45:00.079Z,23.9
2022-09-04T13:50:00.152Z,23.9
2022-09-04T13:55:00.149Z,23.9
2022-09-04T14:00:00.089Z,23.9
2022-09-04T14:05:00.136Z,24.0
2022-09-04T14:10:01.454Z,24.0
2022-09-04T14:15:00.137Z,24.0
2022-09-04T14:20:00.164Z,24.0
2022-09-04T14:25:00.145Z,24.0
2022-09-04T14:30:00.156Z,24.0
2022-09-04T14:35:00.318Z,24.1
2022-09-04T14:40:00.187Z,24.1
2022-09-04T14:45:00.111Z,24.1
2022-09-04T14:50:00.133Z,24.2
2022-09-04T14:55:00.106Z,24.2
2022-09-04T15:00:00.150Z,24.2
2022-09-04T15:05:00.109Z,24.3
2022-09-04T15:10:00.134Z,24.4
2022-09-04T15:15:00.072Z,24.4
2022-09-04T15:20:00.140Z,24.5
2022-09-04T15:25:00.094Z,24.5
2022-09-04T15:30:00.082Z,24.5
2022-09-04T15:35:00.069Z,24.5
2022-09-04T15:40:00.240Z,24.5
2022-09-04T15:45:00.061Z,24.6
2022-09-04T15:50:00.207Z,24.6
2022-09-04T15:55:00.091Z,24.6
2022-09-04T16:00:00.139Z,24.6
2022-09-04T16:05:00.065Z,24.6
2022-09-04T16:10:00.193Z,24.6
2022-09-04T16:15:00.123Z,24.6
2022-09-04T16:20:00.225Z,24.6
2022-09-04T16:25:00.100Z,24.6
2022-09-04T16:30:00.086Z,24.6
2022-09-04T16:35:00.101Z,24.6
2022-09-04T16:40:00.370Z,24.7
2022-09-04T16:45:00.102Z,24.7
2022-09-04T16:50:00.096Z,24.7
2022-09-04T16:55:00.128Z,24.7
2022-09-04T17:00:00.143Z,24.7
2022-09-04T17:05:00.134Z,24.7
2022-09-04T17:10:00.142Z,24.7
2022-09-04T17:15:00.096Z,24.7
2022-09-04T17:20:00.132Z,24.7
2022-09-04T17:29:05.357Z,24.7
2022-09-04T17:30:00.121Z,24.7
2022-09-04T17:37:56.533Z,24.6
2022-09-04T17:40:45.629Z,24.7
2022-09-04T17:45:00.091Z,24.6
2022-09-04T17:50:00.178Z,24.7
2022-09-04T17:55:00.099Z,24.6
2022-09-04T18:00:00.143Z,24.6
2022-09-04T18:05:00.096Z,24.6
2022-09-04T18:10:00.132Z,24.6
2022-09-04T18:15:11.788Z,24.7
2022-09-04T18:42:57.595Z,24.7
2022-09-04T18:49:59.235Z,24.7
2022-09-04T18:50:27.699Z,24.7
2022-09-04T18:55:00.100Z,24.7
2022-09-04T19:00:08.500Z,24.6
2022-09-04T19:05:00.085Z,24.6
2022-09-04T19:10:00.098Z,24.6
2022-09-04T19:15:00.136Z,24.6
2022-09-04T19:20:02.174Z,24.5
2022-09-04T19:25:00.101Z,24.5
2022-09-04T19:30:01.644Z,24.4
2022-09-04T19:35:01.260Z,24.4
2022-09-04T19:45:58.403Z,24.3
2022-09-04T19:46:10.077Z,24.3
2022-09-04T19:51:37.068Z,24.2
2022-09-04T19:55:23.202Z,24.2
2022-09-04T20:00:00.820Z,24.1
2022-09-04T20:05:01.251Z,24.1
2022-09-04T20:10:00.095Z,24.0
2022-09-04T20:15:00.068Z,24.0
2022-09-04T20:20:00.132Z,24.0
2022-09-04T20:25:01.975Z,24.0
2022-09-04T20:30:00.118Z,24.0
2022-09-04T20:35:00.106Z,23.9
2022-09-04T20:40:00.170Z,23.9
2022-09-04T20:46:02.278Z,23.9
2022-09-04T20:53:01.027Z,24.0
2022-09-04T20:55:00.108Z,24.0
2022-09-04T21:02:02.484Z,24.0
2022-09-04T21:05:00.231Z,24.0
2022-09-04T21:10:00.150Z,24.0
2022-09-04T21:15:00.066Z,24.0
2022-09-04T21:20:00.109Z,24.0
2022-09-04T21:25:00.100Z,24.0
2022-09-04T21:30:00.103Z,24.0
2022-09-04T21:35:00.090Z,24.0
2022-09-04T21:40:00.212Z,24.0
2022-09-04T21:45:00.065Z,24.0
2022-09-04T21:50:00.121Z,24.0
2022-09-04T21:56:46.254Z,24.0
2022-09-04T22:02:33.473Z,24.1
2022-09-04T22:05:00.263Z,24.1
2022-09-04T22:12:11.775Z,24.1
2022-09-04T22:15:00.084Z,24.1
2022-09-04T22:20:00.094Z,24.1
2022-09-04T22:25:00.107Z,24.1
2022-09-04T22:30:00.076Z,24.1
2022-09-04T22:35:00.101Z,24.1
2022-09-04T22:40:00.242Z,24.1
2022-09-04T22:45:09.271Z,24.1
2022-09-04T22:50:00.076Z,24.1
2022-09-04T22:55:00.087Z,24.1
2022-09-04T23:00:02.303Z,24.1
2022-09-04T23:05:00.079Z,24.1
2022-09-04T23:13:45.581Z,24.1
2022-09-04T23:15:08.140Z,24.1
2022-09-04T23:23:53.488Z,24.1
2022-09-04T23:26:40.005Z,24.1
2022-09-04T23:30:00.077Z,24.1
2022-09-04T23:35:14.126Z,24.1
2022-09-04T23:40:00.290Z,24.1
2022-09-04T23:45:00.114Z,24.1
2022-09-04T23:50:00.123Z,24.1
2022-09-04T23:55:00.081Z,24.1
